createdAt,value
2022-09-21T00:01:23.649Z,8.10
2022-09-21T00:03:54.999Z,8.10
2022-09-21T00:06:22.105Z,8.10
2022-09-21T00:08:48.870Z,8.10
2022-09-21T00:11:34.148Z,8.20
2022-09-21T00:14:03.694Z,8.10
2022-09-21T00:16:31.214Z,8.10
2022-09-21T00:18:57.742Z,8.10
2022-09-21T00:21:23.929Z,8.10
2022-09-21T00:23:50.965Z,8.10
2022-09-21T00:26:20.532Z,8.00
2022-09-21T00:28:46.954Z,8.00
2022-09-21T00:31:17.022Z,8.00
2022-09-21T00:33:43.249Z,7.90
2022-09-21T00:36:17.526Z,7.90
2022-09-21T00:38:45.366Z,7.90
2022-09-21T00:41:12.193Z,7.90
2022-09-21T00:43:46.638Z,7.80
2022-09-21T00:46:25.077Z,7.80
2022-09-21T00:48:52.516Z,7.80
2022-09-21T00:51:18.712Z,7.80
2022-09-21T00:53:45.064Z,7.90
2022-09-21T00:56:11.499Z,7.90
2022-09-21T00:58:43.822Z,7.80
2022-09-21T01:01:10.070Z,7.80
2022-09-21T01:03:38.091Z,7.80
2022-09-21T01:06:05.619Z,7.80
2022-09-21T01:08:34.923Z,7.80
2022-09-21T01:11:40.274Z,7.80
2022-09-21T01:16:01.743Z,7.80
2022-09-21T01:21:56.303Z,7.80
2022-09-21T01:25:59.004Z,7.80
2022-09-21T01:35:05.184Z,7.70
2022-09-21T01:39:23.871Z,7.80
2022-09-21T01:41:51.516Z,7.80
2022-09-21T01:44:26.959Z,7.80
2022-09-21T01:46:53.182Z,7.80
2022-09-21T01:49:26.623Z,7.80
2022-09-21T01:51:58.268Z,7.90
2022-09-21T01:54:32.244Z,7.80
2022-09-21T01:57:06.922Z,7.90
2022-09-21T01:59:55.441Z,7.90
2022-09-21T02:02:37.380Z,8.00
2022-09-21T02:05:04.333Z,8.10
2022-09-21T02:07:35.943Z,8.10
2022-09-21T02:10:02.512Z,8.10
2022-09-21T02:12:32.498Z,8.20
2022-09-21T02:14:59.437Z,8.20
2022-09-21T02:17:54.218Z,8.30
2022-09-21T02:20:25.879Z,8.30
2022-09-21T02:23:47.327Z,8.40
2022-09-21T02:27:50.828Z,8.40
2022-09-21T02:30:22.553Z,8.50
2022-09-21T02:34:33.227Z,8.50
2022-09-21T02:37:06.437Z,8.60
2022-09-21T02:40:03.932Z,8.60
2022-09-21T02:42:37.479Z,8.60
2022-09-21T02:45:14.178Z,8.60
2022-09-21T02:47:59.868Z,8.60
2022-09-21T02:50:38.550Z,8.60
2022-09-21T02:53:05.594Z,8.60
2022-09-21T02:55:32.473Z,8.60
2022-09-21T02:57:58.664Z,8.60
2022-09-21T03:00:24.887Z,8.70
2022-09-21T03:02:51.154Z,8.70
2022-09-21T03:05:17.633Z,8.70
2022-09-21T03:07:44.498Z,8.70
2022-09-21T03:10:12.770Z,8.80
2022-09-21T03:12:38.999Z,8.80
2022-09-21T03:15:06.965Z,8.80
2022-09-21T03:17:34.625Z,8.80
2022-09-21T03:20:01.803Z,8.80
2022-09-21T03:22:28.067Z,8.80
2022-09-21T03:24:57.098Z,8.90
2022-09-21T03:27:24.355Z,8.90
2022-09-21T03:29:51.597Z,8.90
2022-09-21T03:32:17.872Z,8.90
2022-09-21T03:34:44.072Z,8.90
2022-09-21T03:37:10.828Z,7.20
2022-09-21T03:39:37.161Z,8.90
2022-09-21T03:42:04.247Z,8.90
2022-09-21T03:44:30.813Z,8.90
2022-09-21T03:46:58.259Z,8.90
2022-09-21T03:49:26.334Z,8.90
2022-09-21T03:51:52.564Z,8.90
2022-09-21T03:54:19.272Z,8.90
2022-09-21T03:56:46.038Z,8.90
2022-09-21T03:59:14.249Z,8.90
2022-09-21T04:01:41.726Z,8.90
2022-09-21T04:04:08.784Z,8.90
2022-09-21T04:06:35.151Z,8.90
2022-09-21T04:09:02.591Z,8.90
2022-09-21T04:11:29.856Z,8.90
2022-09-21T04:14:00.074Z,8.90
2022-09-21T04:16:27.213Z,8.90
2022-09-21T04:18:54.173Z,8.90
2022-09-21T04:21:21.831Z,8.90
2022-09-21T04:23:49.503Z,8.90
2022-09-21T04:26:19.841Z,9.00
2022-09-21T04:28:46.142Z,9.00
2022-09-21T04:31:12.355Z,9.00
2022-09-21T04:33:39.433Z,9.00
2022-09-21T04:36:06.719Z,9.10
2022-09-21T04:38:32.967Z,9.00
2022-09-21T04:40:59.961Z,9.10
2022-09-21T04:43:26.477Z,9.00
2022-09-21T04:45:52.952Z,9.00
2022-09-21T04:48:20.096Z,9.00
2022-09-21T04:50:49.767Z,9.10
2022-09-21T04:53:16.667Z,9.00
2022-09-21T04:55:44.639Z,9.00
2022-09-21T04:58:11.738Z,9.00
2022-09-21T05:00:38.775Z,9.10
2022-09-21T05:03:04.972Z,9.10
2022-09-21T05:05:31.843Z,9.10
2022-09-21T05:07:58.479Z,9.10
2022-09-21T05:10:24.692Z,9.10
2022-09-21T05:12:52.382Z,9.10
2022-09-21T05:15:19.023Z,9.20
2022-09-21T05:17:46.883Z,9.20
2022-09-21T05:20:13.175Z,9.20
2022-09-21T05:22:39.489Z,9.30
2022-09-21T05:25:06.906Z,9.30
2022-09-21T05:27:33.427Z,9.30
2022-09-21T05:30:02.054Z,9.30
2022-09-21T05:33:29.974Z,9.30
2022-09-21T05:36:25.800Z,9.40
2022-09-21T05:38:53.274Z,9.40
2022-09-21T05:41:19.861Z,9.50
2022-09-21T05:43:46.456Z,9.50
2022-09-21T05:46:39.615Z,9.60
2022-09-21T05:49:26.662Z,9.50
2022-09-21T05:52:08.857Z,9.40
2022-09-21T05:59:52.364Z,9.50
2022-09-21T06:02:35.187Z,9.50
2022-09-21T06:05:02.737Z,9.50
2022-09-21T06:07:29.888Z,9.60
2022-09-21T06:09:56.444Z,9.70
2022-09-21T06:12:22.614Z,9.80
2022-09-21T06:14:48.882Z,9.90
2022-09-21T06:17:15.126Z,10.00
2022-09-21T06:19:41.338Z,10.30
2022-09-21T06:22:08.185Z,10.20
2022-09-21T06:24:34.924Z,10.30
2022-09-21T06:27:01.112Z,10.40
2022-09-21T06:29:27.353Z,10.50
2022-09-21T06:31:53.902Z,10.50
2022-09-21T06:55:13.956Z,11.60
2022-09-21T06:57:40.256Z,11.70
2022-09-21T07:00:08.680Z,12.00
2022-09-21T07:02:35.178Z,12.30
2022-09-21T07:05:01.808Z,12.40
2022-09-21T07:07:31.795Z,12.30
2022-09-21T07:10:13.233Z,12.10
2022-09-21T07:12:41.128Z,11.80
2022-09-21T07:15:09.697Z,12.10
2022-09-21T07:17:37.418Z,13.00
2022-09-21T07:20:04.717Z,12.10
2022-09-21T07:22:31.841Z,12.20
2022-09-21T07:24:58.286Z,11.90
2022-09-21T07:27:24.932Z,11.60
2022-09-21T07:29:51.561Z,11.80
2022-09-21T07:32:18.248Z,11.80
2022-09-21T07:34:46.129Z,11.90
2022-09-21T07:37:13.011Z,12.00
2022-09-21T07:39:39.300Z,11.80
2022-09-21T07:42:06.046Z,11.90
2022-09-21T07:44:32.580Z,11.90
2022-09-21T07:46:58.940Z,11.70
2022-09-21T07:49:25.655Z,11.60
2022-09-21T07:51:54.963Z,11.60
2022-09-21T07:54:21.273Z,11.40
2022-09-21T07:59:05.442Z,11.40
2022-09-21T08:01:38.544Z,11.50
2022-09-21T08:04:06.692Z,11.80
2022-09-21T08:06:34.990Z,12.00
2022-09-21T08:09:01.813Z,11.80
2022-09-21T08:11:29.784Z,11.90
2022-09-21T08:14:00.820Z,11.90
2022-09-21T08:16:27.480Z,12.10
2022-09-21T08:18:53.894Z,12.10
2022-09-21T08:21:20.116Z,12.40
2022-09-21T08:23:48.666Z,12.60
2022-09-21T08:26:19.472Z,12.70
2022-09-21T08:28:49.757Z,12.60
2022-09-21T08:31:18.189Z,13.00
2022-09-21T08:33:44.767Z,12.90
2022-09-21T08:36:11.100Z,12.70
2022-09-21T08:38:37.947Z,12.70
2022-09-21T08:45:24.570Z,13.00
2022-09-21T08:47:55.968Z,13.20
2022-09-21T08:51:08.848Z,15.00
2022-09-21T08:53:45.313Z,15.50
2022-09-21T08:56:15.015Z,14.60
2022-09-21T08:58:41.860Z,14.40
2022-09-21T09:03:52.602Z,14.00
2022-09-21T09:07:59.129Z,13.90
2022-09-21T09:14:08.988Z,14.30
2022-09-21T09:16:43.817Z,15.70
2022-09-21T09:20:45.277Z,17.60
2022-09-21T09:23:22.460Z,16.70
2022-09-21T09:25:54.030Z,15.70
2022-09-21T09:28:40.927Z,15.40
2022-09-21T09:31:20.439Z,15.00
2022-09-21T09:33:59.932Z,14.70
2022-09-21T09:36:56.750Z,15.60
2022-09-21T09:39:24.630Z,16.30
2022-09-21T09:51:50.702Z,17.20
2022-09-21T09:54:17.966Z,18.80
2022-09-21T09:56:44.391Z,18.60
2022-09-21T09:59:32.113Z,18.80
2022-09-21T10:02:06.731Z,19.30
2022-09-21T10:04:34.457Z,19.10
2022-09-21T10:07:00.939Z,18.50
2022-09-21T10:09:32.099Z,18.20
2022-09-21T10:12:23.949Z,18.70
2022-09-21T10:14:52.604Z,18.80
2022-09-21T10:17:19.026Z,18.30
2022-09-21T10:19:45.354Z,17.40
2022-09-21T10:22:18.378Z,17.10
2022-09-21T10:24:51.603Z,17.00
2022-09-21T10:27:26.973Z,16.80
2022-09-21T10:29:53.811Z,16.90
2022-09-21T10:32:27.173Z,17.50
2022-09-21T10:35:26.820Z,17.60
2022-09-21T10:38:30.128Z,17.40
2022-09-21T10:40:56.446Z,17.80
2022-09-21T10:43:41.245Z,18.10
2022-09-21T10:46:09.670Z,17.70
2022-09-21T10:48:36.017Z,18.10
2022-09-21T10:51:02.336Z,18.20
2022-09-21T10:53:33.205Z,18.10
2022-09-21T10:56:17.072Z,18.20
2022-09-21T10:59:31.399Z,18.20
2022-09-21T11:01:59.268Z,18.80
2022-09-21T11:04:48.101Z,19.30
2022-09-21T11:07:35.033Z,19.10
2022-09-21T11:10:34.099Z,18.60
2022-09-21T11:16:34.968Z,18.60
2022-09-21T11:19:41.030Z,17.00
2022-09-21T11:22:32.363Z,17.10
2022-09-21T11:27:35.244Z,18.30
2022-09-21T11:30:18.300Z,19.10
2022-09-21T11:36:14.549Z,18.90
2022-09-21T11:38:57.022Z,20.00
2022-09-21T11:41:49.464Z,20.40
2022-09-21T11:47:09.770Z,19.50
2022-09-21T11:55:00.654Z,20.10
2022-09-21T11:57:31.239Z,17.60
2022-09-21T12:00:21.060Z,17.70
2022-09-21T12:03:50.337Z,17.60
2022-09-21T12:06:36.319Z,17.80
2022-09-21T12:09:42.034Z,17.80
2022-09-21T12:12:14.350Z,17.20
2022-09-21T12:19:00.354Z,18.10
2022-09-21T12:21:29.755Z,19.30
2022-09-21T12:24:05.066Z,20.50
2022-09-21T12:26:42.012Z,19.80
2022-09-21T12:29:33.305Z,19.70
2022-09-21T12:39:07.878Z,19.40
2022-09-21T12:41:47.545Z,19.10
2022-09-21T12:44:53.871Z,19.00
2022-09-21T12:47:57.680Z,20.00
2022-09-21T12:50:45.921Z,20.30
2022-09-21T12:53:25.068Z,19.90
2022-09-21T12:58:15.803Z,19.40
2022-09-21T13:01:00.638Z,18.40
2022-09-21T13:06:19.206Z,17.80
2022-09-21T13:08:46.684Z,17.10
2022-09-21T13:11:13.394Z,16.30
2022-09-21T13:13:44.743Z,16.30
2022-09-21T13:16:32.441Z,16.10
2022-09-21T13:19:01.359Z,16.10
2022-09-21T13:21:30.033Z,16.00
2022-09-21T13:24:01.096Z,16.00
2022-09-21T13:26:38.829Z,16.10
2022-09-21T13:30:00.455Z,16.00
2022-09-21T13:32:50.388Z,16.00
2022-09-21T13:35:52.303Z,16.10
2022-09-21T13:38:34.153Z,16.30
2022-09-21T13:41:02.384Z,16.40
2022-09-21T13:44:09.247Z,16.20
2022-09-21T13:46:47.509Z,16.10
2022-09-21T13:49:18.858Z,16.00
2022-09-21T13:52:27.393Z,16.00
2022-09-21T13:55:05.578Z,16.10
2022-09-21T13:57:44.637Z,16.00
2022-09-21T14:00:37.672Z,16.00
2022-09-21T14:03:25.925Z,15.80
2022-09-21T14:06:21.159Z,15.80
2022-09-21T14:10:22.363Z,15.90
2022-09-21T14:12:48.699Z,15.90
2022-09-21T14:15:37.750Z,15.90
2022-09-21T14:18:37.798Z,16.20
2022-09-21T14:21:22.467Z,16.20
2022-09-21T14:24:56.030Z,16.40
2022-09-21T14:27:46.137Z,16.30
2022-09-21T14:30:24.338Z,16.40
2022-09-21T14:33:43.010Z,16.30
2022-09-21T14:36:11.197Z,16.40
2022-09-21T14:38:53.737Z,16.30
2022-09-21T14:41:22.990Z,16.20
2022-09-21T14:43:52.409Z,16.20
2022-09-21T14:47:02.218Z,16.40
2022-09-21T14:52:34.398Z,16.90
2022-09-21T14:55:27.670Z,16.90
2022-09-21T15:00:45.773Z,16.30
2022-09-21T15:04:17.678Z,16.30
2022-09-21T15:09:43.204Z,16.00
2022-09-21T15:12:19.184Z,15.90
2022-09-21T15:14:59.196Z,15.70
2022-09-21T15:17:26.903Z,15.70
2022-09-21T15:19:58.860Z,15.80
2022-09-21T15:22:27.550Z,15.60
2022-09-21T15:24:58.751Z,15.80
2022-09-21T15:27:32.822Z,15.70
2022-09-21T15:30:01.277Z,15.60
2022-09-21T15:32:55.253Z,15.70
2022-09-21T15:35:29.983Z,15.50
2022-09-21T15:37:59.131Z,15.60
2022-09-21T15:40:29.439Z,15.60
2022-09-21T15:43:26.620Z,15.70
2022-09-21T15:46:00.539Z,15.60
2022-09-21T15:48:34.798Z,15.60
2022-09-21T15:51:13.166Z,15.70
2022-09-21T15:53:52.912Z,15.60
2022-09-21T15:56:22.271Z,15.70
2022-09-21T15:58:49.317Z,15.60
2022-09-21T16:01:20.889Z,15.60
2022-09-21T16:03:48.714Z,15.70
2022-09-21T16:06:38.486Z,17.20
2022-09-21T16:09:30.745Z,15.70
2022-09-21T16:11:58.175Z,15.60
2022-09-21T16:17:37.177Z,15.30
2022-09-21T16:20:19.049Z,15.10
2022-09-21T16:22:54.220Z,15.10
2022-09-21T16:25:34.720Z,15.00
2022-09-21T16:28:11.196Z,14.90
2022-09-21T16:30:47.932Z,14.90
2022-09-21T16:35:04.672Z,14.80
2022-09-21T16:37:32.064Z,14.70
2022-09-21T16:39:59.620Z,14.60
2022-09-21T16:42:27.631Z,14.40
2022-09-21T16:44:56.128Z,14.30
2022-09-21T16:47:26.612Z,14.20
2022-09-21T16:49:55.859Z,14.10
2022-09-21T16:52:23.272Z,14.00
2022-09-21T16:54:50.729Z,13.90
2022-09-21T16:57:17.925Z,13.80
2022-09-21T16:59:44.409Z,13.70
2022-09-21T17:02:11.892Z,13.70
2022-09-21T17:04:38.947Z,13.50
2022-09-21T17:07:05.513Z,13.10
2022-09-21T17:09:35.253Z,12.60
2022-09-21T17:12:03.256Z,12.40
2022-09-21T17:14:41.857Z,12.20
2022-09-21T17:17:43.964Z,12.10
2022-09-21T17:20:23.186Z,12.00
2022-09-21T17:22:49.844Z,11.90
2022-09-21T17:25:16.372Z,11.90
2022-09-21T17:27:46.973Z,11.80
2022-09-21T17:30:19.443Z,11.80
2022-09-21T17:32:49.972Z,11.80
2022-09-21T17:35:30.243Z,11.70
2022-09-21T17:37:57.562Z,11.70
2022-09-21T17:40:25.083Z,11.60
2022-09-21T17:42:54.728Z,11.60
2022-09-21T17:45:50.495Z,11.60
2022-09-21T17:48:21.447Z,11.60
2022-09-21T17:50:49.546Z,11.50
2022-09-21T17:53:39.892Z,11.60
2022-09-21T17:57:50.082Z,11.60
2022-09-21T18:00:22.773Z,11.60
2022-09-21T18:02:49.956Z,11.60
2022-09-21T18:05:26.746Z,11.60
2022-09-21T18:07:54.149Z,11.50
2022-09-21T18:10:22.540Z,11.50
2022-09-21T18:16:03.629Z,11.50
2022-09-21T18:21:33.888Z,11.50
2022-09-21T18:24:32.898Z,11.80
2022-09-21T18:27:01.021Z,11.50
2022-09-21T18:29:41.092Z,11.40
2022-09-21T18:36:59.425Z,11.30
2022-09-21T18:44:38.309Z,11.30
2022-09-21T18:48:11.380Z,11.00
2022-09-21T18:55:44.741Z,10.80
2022-09-21T18:58:11.316Z,10.70
2022-09-21T19:00:37.997Z,10.70
2022-09-21T19:03:23.079Z,10.80
2022-09-21T19:08:29.328Z,10.80
2022-09-21T19:11:11.468Z,10.90
2022-09-21T19:15:24.247Z,10.90
2022-09-21T19:18:17.926Z,10.90
2022-09-21T19:25:51.232Z,10.90
2022-09-21T19:31:49.693Z,11.00
2022-09-21T19:34:18.751Z,11.10
2022-09-21T19:36:47.227Z,11.00
2022-09-21T19:39:14.770Z,11.10
2022-09-21T19:43:07.585Z,11.10
2022-09-21T19:47:45.463Z,11.20
2022-09-21T19:50:16.573Z,11.20
2022-09-21T19:52:43.377Z,11.20
2022-09-21T19:55:36.457Z,11.20
2022-09-21T19:58:21.877Z,13.00
2022-09-21T20:00:55.080Z,11.30
2022-09-21T20:03:36.881Z,11.20
2022-09-21T20:06:34.231Z,11.20
2022-09-21T20:09:24.092Z,11.20
2022-09-21T20:12:00.549Z,11.20
2022-09-21T20:16:21.000Z,11.30
2022-09-21T20:18:58.412Z,11.30
2022-09-21T20:21:26.710Z,11.20
2022-09-21T20:23:54.211Z,11.30
2022-09-21T20:26:26.604Z,11.30
2022-09-21T20:28:53.692Z,11.30
2022-09-21T20:31:20.809Z,11.30
2022-09-21T20:33:47.117Z,11.30
2022-09-21T20:36:14.623Z,11.30
2022-09-21T20:38:41.759Z,11.30
2022-09-21T20:41:11.770Z,11.30
2022-09-21T20:43:38.170Z,11.30
2022-09-21T20:46:04.697Z,11.30
2022-09-21T20:48:31.068Z,11.30
2022-09-21T20:51:00.673Z,11.30
2022-09-21T20:53:26.994Z,11.30
2022-09-21T20:55:57.176Z,11.30
2022-09-21T20:58:24.079Z,11.30
2022-09-21T21:00:53.083Z,11.30
2022-09-21T21:03:22.862Z,11.30
2022-09-21T21:05:49.055Z,11.30
2022-09-21T21:08:15.872Z,11.30
2022-09-21T21:10:46.217Z,11.30
2022-09-21T21:13:13.430Z,11.30
2022-09-21T21:15:39.660Z,11.30
2022-09-21T21:18:09.580Z,11.30
2022-09-21T21:20:36.766Z,11.30
2022-09-21T21:23:07.780Z,11.20
2022-09-21T21:25:34.767Z,11.20
2022-09-21T21:28:01.488Z,11.20
2022-09-21T21:30:27.747Z,11.20
2022-09-21T21:32:54.532Z,11.20
2022-09-21T21:35:20.978Z,11.10
2022-09-21T21:37:47.204Z,11.10
2022-09-21T21:40:14.438Z,11.10
2022-09-21T21:42:40.781Z,11.00
2022-09-21T21:45:09.559Z,11.00
2022-09-21T21:47:40.783Z,11.00
2022-09-21T21:50:08.727Z,10.90
2022-09-21T21:52:35.010Z,10.90
2022-09-21T21:55:01.681Z,10.80
2022-09-21T21:57:27.902Z,10.80
2022-09-21T21:59:54.066Z,10.80
2022-09-21T22:02:20.801Z,10.80
2022-09-21T22:04:47.018Z,10.80
2022-09-21T22:07:13.144Z,10.80
2022-09-21T22:09:39.357Z,10.70
2022-09-21T22:12:06.248Z,10.70
2022-09-21T22:14:32.522Z,10.70
2022-09-21T22:16:59.650Z,10.70
2022-09-21T22:19:25.849Z,10.60
2022-09-21T22:21:54.388Z,10.70
2022-09-21T22:24:21.604Z,10.60
2022-09-21T22:26:47.994Z,10.50
2022-09-21T22:29:15.366Z,10.50
2022-09-21T22:31:46.916Z,10.50
2022-09-21T22:34:13.994Z,10.40
2022-09-21T22:36:40.236Z,10.40
2022-09-21T22:39:07.291Z,10.30
2022-09-21T22:41:35.131Z,10.30
2022-09-21T22:44:01.541Z,10.30
2022-09-21T22:46:29.411Z,10.30
2022-09-21T22:48:56.102Z,10.30
2022-09-21T22:51:22.717Z,10.20
2022-09-21T22:53:49.536Z,10.20
2022-09-21T22:56:17.688Z,10.30
2022-09-21T22:58:54.510Z,10.30
2022-09-21T23:01:24.756Z,10.30
2022-09-21T23:04:08.743Z,10.40
2022-09-21T23:06:36.726Z,10.40
2022-09-21T23:09:05.000Z,10.50
2022-09-21T23:11:33.154Z,10.50
2022-09-21T23:13:59.469Z,10.60
2022-09-21T23:16:26.639Z,10.60
2022-09-21T23:18:53.136Z,10.60
2022-09-21T23:21:21.993Z,10.60
2022-09-21T23:23:48.160Z,10.70
2022-09-21T23:26:20.438Z,10.60
2022-09-21T23:28:54.507Z,10.60
2022-09-21T23:31:20.846Z,10.50
2022-09-21T23:33:48.681Z,10.40
2022-09-21T23:36:17.073Z,10.30
2022-09-21T23:38:43.948Z,10.20
2022-09-21T23:41:14.956Z,10.10
2022-09-21T23:43:42.224Z,10.10
2022-09-21T23:46:09.546Z,9.90
2022-09-21T23:48:35.777Z,9.90
2022-09-21T23:51:02.396Z,9.80
2022-09-21T23:53:29.079Z,9.70
2022-09-21T23:55:55.961Z,9.60
2022-09-21T23:58:22.895Z,9.50
